sensor_id;sensor_type;location;lat;lon;timestamp;P1;durP1;ratioP1;P2;durP2;ratioP2
52898;SDS011;38763;53.096;6.062;2023-08-08T00:00:23;9.05;;;3.00;;
52898;SDS011;38763;53.096;6.062;2023-08-08T00:02:48;6.40;;;3.03;;
52898;SDS011;38763;53.096;6.062;2023-08-08T00:05:14;6.15;;;3.00;;
52898;SDS011;38763;53.096;6.062;2023-08-08T00:07:40;6.25;;;3.17;;
52898;SDS011;38763;53.096;6.062;2023-08-08T00:10:06;7.03;;;2.88;;
52898;SDS011;38763;53.096;6.062;2023-08-08T00:12:32;8.38;;;3.17;;
52898;SDS011;38763;53.096;6.062;2023-08-08T00:14:57;5.97;;;2.80;;
52898;SDS011;38763;53.096;6.062;2023-08-08T00:17:23;6.30;;;2.75;;
52898;SDS011;38763;53.096;6.062;2023-08-08T00:19:48;6.45;;;3.00;;
52898;SDS011;38763;53.096;6.062;2023-08-08T00:22:14;6.38;;;2.80;;
52898;SDS011;38763;53.096;6.062;2023-08-08T00:24:40;8.93;;;2.80;;
52898;SDS011;38763;53.096;6.062;2023-08-08T00:27:05;7.97;;;2.88;;
52898;SDS011;38763;53.096;6.062;2023-08-08T00:29:31;7.07;;;2.70;;
52898;SDS011;38763;53.096;6.062;2023-08-08T00:31:57;5.93;;;2.58;;
52898;SDS011;38763;53.096;6.062;2023-08-08T00:34:22;9.27;;;3.20;;
52898;SDS011;38763;53.096;6.062;2023-08-08T00:36:48;8.60;;;2.70;;
52898;SDS011;38763;53.096;6.062;2023-08-08T00:39:13;7.50;;;2.63;;
52898;SDS011;38763;53.096;6.062;2023-08-08T00:41:39;8.82;;;2.85;;
52898;SDS011;38763;53.096;6.062;2023-08-08T00:44:04;7.07;;;2.70;;
52898;SDS011;38763;53.096;6.062;2023-08-08T00:46:30;8.85;;;2.60;;
52898;SDS011;38763;53.096;6.062;2023-08-08T00:48:56;7.03;;;2.65;;
52898;SDS011;38763;53.096;6.062;2023-08-08T00:51:22;5.30;;;2.80;;
52898;SDS011;38763;53.096;6.062;2023-08-08T00:53:49;11.73;;;3.10;;
52898;SDS011;38763;53.096;6.062;2023-08-08T00:56:15;9.40;;;3.22;;
52898;SDS011;38763;53.096;6.062;2023-08-08T00:58:42;10.25;;;3.20;;
52898;SDS011;38763;53.096;6.062;2023-08-08T01:01:11;7.43;;;2.95;;
52898;SDS011;38763;53.096;6.062;2023-08-08T01:03:37;13.27;;;3.95;;
52898;SDS011;38763;53.096;6.062;2023-08-08T01:08:54;11.68;;;3.40;;
52898;SDS011;38763;53.096;6.062;2023-08-08T01:11:23;10.02;;;3.28;;
52898;SDS011;38763;53.096;6.062;2023-08-08T01:13:52;8.35;;;3.25;;
52898;SDS011;38763;53.096;6.062;2023-08-08T01:16:19;10.32;;;3.20;;
52898;SDS011;38763;53.096;6.062;2023-08-08T01:18:46;9.00;;;3.00;;
52898;SDS011;38763;53.096;6.062;2023-08-08T01:21:13;9.95;;;2.90;;
52898;SDS011;38763;53.096;6.062;2023-08-08T01:23:45;5.22;;;2.85;;
52898;SDS011;38763;53.096;6.062;2023-08-08T01:26:17;9.55;;;3.83;;
52898;SDS011;38763;53.096;6.062;2023-08-08T01:28:42;10.02;;;3.00;;
52898;SDS011;38763;53.096;6.062;2023-08-08T01:31:09;7.78;;;3.13;;
52898;SDS011;38763;53.096;6.062;2023-08-08T01:33:35;10.63;;;3.30;;
52898;SDS011;38763;53.096;6.062;2023-08-08T01:36:06;7.00;;;3.25;;
52898;SDS011;38763;53.096;6.062;2023-08-08T01:38:41;11.27;;;3.75;;
52898;SDS011;38763;53.096;6.062;2023-08-08T01:41:09;8.52;;;3.25;;
52898;SDS011;38763;53.096;6.062;2023-08-08T01:43:36;9.35;;;3.38;;
52898;SDS011;38763;53.096;6.062;2023-08-08T01:46:03;12.52;;;3.63;;
52898;SDS011;38763;53.096;6.062;2023-08-08T01:48:30;5.95;;;3.10;;
52898;SDS011;38763;53.096;6.062;2023-08-08T01:50:56;8.60;;;3.15;;
52898;SDS011;38763;53.096;6.062;2023-08-08T01:53:21;9.45;;;3.45;;
52898;SDS011;38763;53.096;6.062;2023-08-08T01:55:47;14.07;;;3.28;;
52898;SDS011;38763;53.096;6.062;2023-08-08T01:58:12;9.43;;;3.00;;
52898;SDS011;38763;53.096;6.062;2023-08-08T02:00:38;7.03;;;3.03;;
52898;SDS011;38763;53.096;6.062;2023-08-08T02:03:06;8.30;;;3.58;;
52898;SDS011;38763;53.096;6.062;2023-08-08T02:05:31;7.03;;;3.00;;
52898;SDS011;38763;53.096;6.062;2023-08-08T02:07:57;11.02;;;3.15;;
52898;SDS011;38763;53.096;6.062;2023-08-08T02:10:23;7.07;;;3.00;;
52898;SDS011;38763;53.096;6.062;2023-08-08T02:12:49;8.38;;;2.72;;
52898;SDS011;38763;53.096;6.062;2023-08-08T02:15:14;11.30;;;3.40;;
52898;SDS011;38763;53.096;6.062;2023-08-08T02:17:40;7.13;;;2.80;;
52898;SDS011;38763;53.096;6.062;2023-08-08T02:20:07;8.82;;;2.78;;
52898;SDS011;38763;53.096;6.062;2023-08-08T02:22:33;7.53;;;2.72;;
52898;SDS011;38763;53.096;6.062;2023-08-08T02:24:59;10.98;;;2.78;;
52898;SDS011;38763;53.096;6.062;2023-08-08T02:27:25;6.13;;;2.60;;
52898;SDS011;38763;53.096;6.062;2023-08-08T02:29:50;9.50;;;2.95;;
52898;SDS011;38763;53.096;6.062;2023-08-08T02:32:16;6.80;;;2.70;;
52898;SDS011;38763;53.096;6.062;2023-08-08T02:34:41;7.45;;;2.90;;
52898;SDS011;38763;53.096;6.062;2023-08-08T02:37:07;8.13;;;2.70;;
52898;SDS011;38763;53.096;6.062;2023-08-08T02:39:33;9.10;;;2.60;;
52898;SDS011;38763;53.096;6.062;2023-08-08T02:41:59;10.15;;;2.90;;
52898;SDS011;38763;53.096;6.062;2023-08-08T02:44:24;9.48;;;2.70;;
52898;SDS011;38763;53.096;6.062;2023-08-08T02:46:50;11.70;;;3.05;;
52898;SDS011;38763;53.096;6.062;2023-08-08T02:49:15;8.82;;;2.45;;
52898;SDS011;38763;53.096;6.062;2023-08-08T02:51:41;12.85;;;2.60;;
52898;SDS011;38763;53.096;6.062;2023-08-08T02:54:07;12.98;;;3.28;;
52898;SDS011;38763;53.096;6.062;2023-08-08T02:56:32;10.73;;;2.85;;
52898;SDS011;38763;53.096;6.062;2023-08-08T02:58:58;12.48;;;3.30;;
52898;SDS011;38763;53.096;6.062;2023-08-08T03:01:23;8.10;;;2.80;;
52898;SDS011;38763;53.096;6.062;2023-08-08T03:03:49;11.15;;;3.25;;
52898;SDS011;38763;53.096;6.062;2023-08-08T03:06:15;8.68;;;2.83;;
52898;SDS011;38763;53.096;6.062;2023-08-08T03:08:41;10.30;;;2.90;;
52898;SDS011;38763;53.096;6.062;2023-08-08T03:11:06;8.85;;;2.70;;
52898;SDS011;38763;53.096;6.062;2023-08-08T03:13:32;8.90;;;2.90;;
52898;SDS011;38763;53.096;6.062;2023-08-08T03:15:58;12.80;;;2.65;;
52898;SDS011;38763;53.096;6.062;2023-08-08T03:18:23;12.95;;;2.78;;
52898;SDS011;38763;53.096;6.062;2023-08-08T03:20:51;7.68;;;2.53;;
52898;SDS011;38763;53.096;6.062;2023-08-08T03:23:17;9.82;;;2.95;;
52898;SDS011;38763;53.096;6.062;2023-08-08T03:25:43;7.00;;;2.47;;
52898;SDS011;38763;53.096;6.062;2023-08-08T03:28:09;11.20;;;2.70;;
52898;SDS011;38763;53.096;6.062;2023-08-08T03:30:36;10.40;;;2.72;;
52898;SDS011;38763;53.096;6.062;2023-08-08T03:33:03;7.22;;;2.42;;
52898;SDS011;38763;53.096;6.062;2023-08-08T03:35:29;8.70;;;2.60;;
52898;SDS011;38763;53.096;6.062;2023-08-08T03:37:55;8.50;;;2.67;;
52898;SDS011;38763;53.096;6.062;2023-08-08T03:40:20;9.00;;;2.25;;
52898;SDS011;38763;53.096;6.062;2023-08-08T03:42:46;8.70;;;2.53;;
52898;SDS011;38763;53.096;6.062;2023-08-08T03:45:12;10.57;;;2.75;;
52898;SDS011;38763;53.096;6.062;2023-08-08T03:47:37;9.05;;;2.33;;
52898;SDS011;38763;53.096;6.062;2023-08-08T03:50:03;13.18;;;2.20;;
52898;SDS011;38763;53.096;6.062;2023-08-08T03:52:30;7.57;;;2.50;;
52898;SDS011;38763;53.096;6.062;2023-08-08T03:54:56;7.95;;;2.17;;
52898;SDS011;38763;53.096;6.062;2023-08-08T03:57:21;10.90;;;2.47;;
52898;SDS011;38763;53.096;6.062;2023-08-08T03:59:47;9.50;;;2.08;;
52898;SDS011;38763;53.096;6.062;2023-08-08T04:02:13;8.07;;;2.35;;
52898;SDS011;38763;53.096;6.062;2023-08-08T04:04:38;8.00;;;2.30;;
52898;SDS011;38763;53.096;6.062;2023-08-08T04:07:04;8.98;;;2.03;;
52898;SDS011;38763;53.096;6.062;2023-08-08T04:09:30;7.47;;;2.40;;
52898;SDS011;38763;53.096;6.062;2023-08-08T04:11:56;9.70;;;2.47;;
52898;SDS011;38763;53.096;6.062;2023-08-08T04:14:21;9.52;;;2.03;;
52898;SDS011;38763;53.096;6.062;2023-08-08T04:16:47;11.98;;;2.55;;
52898;SDS011;38763;53.096;6.062;2023-08-08T04:19:13;8.02;;;2.00;;
52898;SDS011;38763;53.096;6.062;2023-08-08T04:21:38;6.68;;;2.22;;
52898;SDS011;38763;53.096;6.062;2023-08-08T04:24:04;11.52;;;2.30;;
52898;SDS011;38763;53.096;6.062;2023-08-08T04:26:32;11.05;;;2.20;;
52898;SDS011;38763;53.096;6.062;2023-08-08T04:28:58;7.97;;;1.85;;
52898;SDS011;38763;53.096;6.062;2023-08-08T04:31:24;9.23;;;2.15;;
52898;SDS011;38763;53.096;6.062;2023-08-08T04:33:51;9.25;;;2.28;;
52898;SDS011;38763;53.096;6.062;2023-08-08T04:36:20;7.47;;;1.95;;
52898;SDS011;38763;53.096;6.062;2023-08-08T04:38:46;10.45;;;2.35;;
52898;SDS011;38763;53.096;6.062;2023-08-08T04:41:12;8.07;;;2.00;;
52898;SDS011;38763;53.096;6.062;2023-08-08T04:43:37;9.57;;;2.13;;
52898;SDS011;38763;53.096;6.062;2023-08-08T04:46:03;9.32;;;1.80;;
52898;SDS011;38763;53.096;6.062;2023-08-08T04:48:28;9.07;;;2.22;;
52898;SDS011;38763;53.096;6.062;2023-08-08T04:50:54;9.18;;;1.60;;
52898;SDS011;38763;53.096;6.062;2023-08-08T04:53:20;10.63;;;1.50;;
52898;SDS011;38763;53.096;6.062;2023-08-08T04:55:45;5.28;;;1.50;;
52898;SDS011;38763;53.096;6.062;2023-08-08T04:58:11;5.43;;;1.60;;
52898;SDS011;38763;53.096;6.062;2023-08-08T05:00:36;4.22;;;1.20;;
52898;SDS011;38763;53.096;6.062;2023-08-08T05:03:02;4.55;;;1.45;;
52898;SDS011;38763;53.096;6.062;2023-08-08T05:05:28;6.65;;;1.70;;
52898;SDS011;38763;53.096;6.062;2023-08-08T05:07:54;5.63;;;1.55;;
52898;SDS011;38763;53.096;6.062;2023-08-08T05:10:19;5.32;;;1.52;;
52898;SDS011;38763;53.096;6.062;2023-08-08T05:12:45;7.63;;;1.65;;
52898;SDS011;38763;53.096;6.062;2023-08-08T05:15:10;4.97;;;1.27;;
52898;SDS011;38763;53.096;6.062;2023-08-08T05:17:36;6.93;;;1.60;;
52898;SDS011;38763;53.096;6.062;2023-08-08T05:20:02;8.40;;;1.55;;
52898;SDS011;38763;53.096;6.062;2023-08-08T05:22:28;7.60;;;2.08;;
52898;SDS011;38763;53.096;6.062;2023-08-08T05:24:54;7.60;;;1.70;;
52898;SDS011;38763;53.096;6.062;2023-08-08T05:27:20;7.22;;;1.58;;
52898;SDS011;38763;53.096;6.062;2023-08-08T05:29:45;8.05;;;1.77;;
52898;SDS011;38763;53.096;6.062;2023-08-08T05:32:11;5.03;;;1.55;;
52898;SDS011;38763;53.096;6.062;2023-08-08T05:34:36;9.48;;;1.58;;
52898;SDS011;38763;53.096;6.062;2023-08-08T05:37:02;7.30;;;1.70;;
52898;SDS011;38763;53.096;6.062;2023-08-08T05:39:29;5.65;;;1.45;;
52898;SDS011;38763;53.096;6.062;2023-08-08T05:41:55;7.63;;;1.48;;
52898;SDS011;38763;53.096;6.062;2023-08-08T05:44:21;12.18;;;1.80;;
52898;SDS011;38763;53.096;6.062;2023-08-08T05:46:47;5.88;;;1.70;;
52898;SDS011;38763;53.096;6.062;2023-08-08T05:49:12;10.38;;;2.00;;
52898;SDS011;38763;53.096;6.062;2023-08-08T05:51:39;7.10;;;1.50;;
52898;SDS011;38763;53.096;6.062;2023-08-08T05:54:05;10.82;;;1.75;;
52898;SDS011;38763;53.096;6.062;2023-08-08T05:56:34;6.47;;;1.42;;
52898;SDS011;38763;53.096;6.062;2023-08-08T05:59:01;7.90;;;1.48;;
52898;SDS011;38763;53.096;6.062;2023-08-08T06:01:27;15.25;;;1.60;;
52898;SDS011;38763;53.096;6.062;2023-08-08T06:03:53;7.15;;;1.60;;
52898;SDS011;38763;53.096;6.062;2023-08-08T06:06:19;8.63;;;1.95;;
52898;SDS011;38763;53.096;6.062;2023-08-08T06:08:44;7.55;;;1.95;;
52898;SDS011;38763;53.096;6.062;2023-08-08T06:11:10;6.28;;;1.52;;
52898;SDS011;38763;53.096;6.062;2023-08-08T06:13:36;6.38;;;1.50;;
52898;SDS011;38763;53.096;6.062;2023-08-08T06:16:02;8.00;;;1.50;;
52898;SDS011;38763;53.096;6.062;2023-08-08T06:18:31;5.57;;;1.50;;
52898;SDS011;38763;53.096;6.062;2023-08-08T06:20:58;9.27;;;1.40;;
52898;SDS011;38763;53.096;6.062;2023-08-08T06:23:23;7.95;;;1.50;;
52898;SDS011;38763;53.096;6.062;2023-08-08T06:25:49;6.35;;;1.40;;
52898;SDS011;38763;53.096;6.062;2023-08-08T06:28:15;10.75;;;1.25;;
52898;SDS011;38763;53.096;6.062;2023-08-08T06:30:40;6.70;;;1.40;;
52898;SDS011;38763;53.096;6.062;2023-08-08T06:33:06;6.20;;;1.35;;
52898;SDS011;38763;53.096;6.062;2023-08-08T06:35:31;5.65;;;1.30;;
52898;SDS011;38763;53.096;6.062;2023-08-08T06:37:57;6.28;;;1.45;;
52898;SDS011;38763;53.096;6.062;2023-08-08T06:40:23;7.35;;;1.23;;
52898;SDS011;38763;53.096;6.062;2023-08-08T06:42:49;5.75;;;1.23;;
52898;SDS011;38763;53.096;6.062;2023-08-08T06:45:14;8.15;;;1.55;;
52898;SDS011;38763;53.096;6.062;2023-08-08T06:47:40;7.65;;;1.63;;
52898;SDS011;38763;53.096;6.062;2023-08-08T06:50:06;9.15;;;1.40;;
52898;SDS011;38763;53.096;6.062;2023-08-08T06:52:32;6.95;;;1.40;;
52898;SDS011;38763;53.096;6.062;2023-08-08T06:54:58;6.47;;;1.45;;
52898;SDS011;38763;53.096;6.062;2023-08-08T06:57:24;8.82;;;1.45;;
52898;SDS011;38763;53.096;6.062;2023-08-08T06:59:49;6.38;;;1.23;;
52898;SDS011;38763;53.096;6.062;2023-08-08T07:02:18;4.70;;;1.20;;
52898;SDS011;38763;53.096;6.062;2023-08-08T07:04:45;11.77;;;1.63;;
52898;SDS011;38763;53.096;6.062;2023-08-08T07:07:11;8.27;;;1.63;;
52898;SDS011;38763;53.096;6.062;2023-08-08T07:09:37;10.60;;;1.45;;
52898;SDS011;38763;53.096;6.062;2023-08-08T07:12:03;8.57;;;1.67;;
52898;SDS011;38763;53.096;6.062;2023-08-08T07:14:29;7.28;;;1.30;;
52898;SDS011;38763;53.096;6.062;2023-08-08T07:16:55;8.02;;;1.23;;
52898;SDS011;38763;53.096;6.062;2023-08-08T07:19:21;6.50;;;1.25;;
52898;SDS011;38763;53.096;6.062;2023-08-08T07:21:47;5.00;;;1.17;;
52898;SDS011;38763;53.096;6.062;2023-08-08T07:24:12;10.32;;;1.30;;
52898;SDS011;38763;53.096;6.062;2023-08-08T07:26:38;7.00;;;1.85;;
52898;SDS011;38763;53.096;6.062;2023-08-08T07:29:04;7.40;;;1.10;;
52898;SDS011;38763;53.096;6.062;2023-08-08T07:31:31;8.25;;;1.48;;
52898;SDS011;38763;53.096;6.062;2023-08-08T07:33:57;7.18;;;1.55;;
52898;SDS011;38763;53.096;6.062;2023-08-08T07:36:23;8.00;;;1.55;;
52898;SDS011;38763;53.096;6.062;2023-08-08T07:38:48;7.53;;;1.40;;
52898;SDS011;38763;53.096;6.062;2023-08-08T07:41:14;7.45;;;1.30;;
52898;SDS011;38763;53.096;6.062;2023-08-08T07:43:40;7.28;;;1.25;;
52898;SDS011;38763;53.096;6.062;2023-08-08T07:46:05;7.10;;;1.27;;
52898;SDS011;38763;53.096;6.062;2023-08-08T07:48:31;6.80;;;1.20;;
52898;SDS011;38763;53.096;6.062;2023-08-08T07:50:56;7.05;;;1.60;;
52898;SDS011;38763;53.096;6.062;2023-08-08T07:53:22;5.88;;;1.33;;
52898;SDS011;38763;53.096;6.062;2023-08-08T07:55:48;7.47;;;1.40;;
52898;SDS011;38763;53.096;6.062;2023-08-08T07:58:13;10.38;;;1.40;;
52898;SDS011;38763;53.096;6.062;2023-08-08T08:00:39;8.30;;;1.40;;
52898;SDS011;38763;53.096;6.062;2023-08-08T08:03:05;7.22;;;1.60;;
52898;SDS011;38763;53.096;6.062;2023-08-08T08:05:31;8.07;;;1.17;;
52898;SDS011;38763;53.096;6.062;2023-08-08T08:07:59;7.90;;;1.20;;
52898;SDS011;38763;53.096;6.062;2023-08-08T08:10:25;9.35;;;1.52;;
52898;SDS011;38763;53.096;6.062;2023-08-08T08:12:51;7.40;;;1.40;;
52898;SDS011;38763;53.096;6.062;2023-08-08T08:15:22;6.70;;;1.52;;
52898;SDS011;38763;53.096;6.062;2023-08-08T08:17:49;8.25;;;1.60;;
52898;SDS011;38763;53.096;6.062;2023-08-08T08:20:14;5.47;;;1.38;;
52898;SDS011;38763;53.096;6.062;2023-08-08T08:22:40;4.68;;;1.20;;
52898;SDS011;38763;53.096;6.062;2023-08-08T08:25:06;8.95;;;1.55;;
52898;SDS011;38763;53.096;6.062;2023-08-08T08:27:35;4.25;;;1.42;;
52898;SDS011;38763;53.096;6.062;2023-08-08T08:30:02;6.78;;;1.60;;
52898;SDS011;38763;53.096;6.062;2023-08-08T08:32:31;5.80;;;1.50;;
52898;SDS011;38763;53.096;6.062;2023-08-08T08:35:04;5.87;;;1.00;;
52898;SDS011;38763;53.096;6.062;2023-08-08T08:37:31;4.93;;;0.98;;
52898;SDS011;38763;53.096;6.062;2023-08-08T08:39:57;4.95;;;1.40;;
52898;SDS011;38763;53.096;6.062;2023-08-08T08:42:23;6.28;;;1.52;;
52898;SDS011;38763;53.096;6.062;2023-08-08T08:44:49;5.38;;;1.30;;
52898;SDS011;38763;53.096;6.062;2023-08-08T08:47:15;7.63;;;1.20;;
52898;SDS011;38763;53.096;6.062;2023-08-08T08:49:44;6.85;;;1.38;;
52898;SDS011;38763;53.096;6.062;2023-08-08T08:52:11;7.03;;;1.30;;
52898;SDS011;38763;53.096;6.062;2023-08-08T08:54:37;5.10;;;1.00;;
52898;SDS011;38763;53.096;6.062;2023-08-08T08:57:03;6.68;;;1.30;;
52898;SDS011;38763;53.096;6.062;2023-08-08T08:59:29;8.70;;;1.33;;
52898;SDS011;38763;53.096;6.062;2023-08-08T09:01:56;8.05;;;1.20;;
52898;SDS011;38763;53.096;6.062;2023-08-08T09:04:21;6.85;;;0.98;;
52898;SDS011;38763;53.096;6.062;2023-08-08T09:06:48;10.05;;;1.50;;
52898;SDS011;38763;53.096;6.062;2023-08-08T09:09:15;6.38;;;1.13;;
52898;SDS011;38763;53.096;6.062;2023-08-08T09:11:42;8.68;;;1.40;;
52898;SDS011;38763;53.096;6.062;2023-08-08T09:14:16;5.35;;;1.50;;
52898;SDS011;38763;53.096;6.062;2023-08-08T09:16:43;6.63;;;1.40;;
52898;SDS011;38763;53.096;6.062;2023-08-08T09:19:08;5.25;;;1.10;;
52898;SDS011;38763;53.096;6.062;2023-08-08T09:21:35;7.57;;;1.40;;
52898;SDS011;38763;53.096;6.062;2023-08-08T09:24:01;6.88;;;1.40;;
52898;SDS011;38763;53.096;6.062;2023-08-08T09:26:27;5.57;;;1.33;;
52898;SDS011;38763;53.096;6.062;2023-08-08T09:28:53;6.55;;;1.35;;
52898;SDS011;38763;53.096;6.062;2023-08-08T09:31:19;6.75;;;1.23;;
52898;SDS011;38763;53.096;6.062;2023-08-08T09:33:45;9.00;;;1.55;;
52898;SDS011;38763;53.096;6.062;2023-08-08T09:36:16;6.68;;;1.30;;
52898;SDS011;38763;53.096;6.062;2023-08-08T09:38:44;7.15;;;1.27;;
52898;SDS011;38763;53.096;6.062;2023-08-08T09:41:10;8.38;;;1.27;;
52898;SDS011;38763;53.096;6.062;2023-08-08T09:43:37;5.45;;;1.30;;
52898;SDS011;38763;53.096;6.062;2023-08-08T09:46:02;5.90;;;1.20;;
52898;SDS011;38763;53.096;6.062;2023-08-08T09:48:35;4.25;;;1.20;;
52898;SDS011;38763;53.096;6.062;2023-08-08T09:51:05;6.32;;;1.42;;
52898;SDS011;38763;53.096;6.062;2023-08-08T09:53:32;8.05;;;1.45;;
52898;SDS011;38763;53.096;6.062;2023-08-08T09:55:58;5.10;;;1.10;;
52898;SDS011;38763;53.096;6.062;2023-08-08T09:58:28;7.88;;;1.55;;
52898;SDS011;38763;53.096;6.062;2023-08-08T10:00:54;7.63;;;1.65;;
52898;SDS011;38763;53.096;6.062;2023-08-08T10:03:20;7.00;;;1.33;;
52898;SDS011;38763;53.096;6.062;2023-08-08T10:05:47;5.72;;;1.63;;
52898;SDS011;38763;53.096;6.062;2023-08-08T10:08:17;4.28;;;1.10;;
52898;SDS011;38763;53.096;6.062;2023-08-08T10:10:44;6.15;;;1.23;;
52898;SDS011;38763;53.096;6.062;2023-08-08T10:13:24;3.25;;;1.20;;
52898;SDS011;38763;53.096;6.062;2023-08-08T10:15:50;8.43;;;1.52;;
52898;SDS011;38763;53.096;6.062;2023-08-08T10:18:17;8.60;;;1.70;;
52898;SDS011;38763;53.096;6.062;2023-08-08T10:20:44;7.57;;;1.63;;
52898;SDS011;38763;53.096;6.062;2023-08-08T10:23:14;6.32;;;1.30;;
52898;SDS011;38763;53.096;6.062;2023-08-08T10:25:47;7.85;;;1.48;;
52898;SDS011;38763;53.096;6.062;2023-08-08T10:28:15;6.30;;;1.27;;
52898;SDS011;38763;53.096;6.062;2023-08-08T10:30:44;5.18;;;1.35;;
52898;SDS011;38763;53.096;6.062;2023-08-08T10:33:17;7.57;;;1.52;;
52898;SDS011;38763;53.096;6.062;2023-08-08T10:36:00;5.15;;;1.20;;
52898;SDS011;38763;53.096;6.062;2023-08-08T10:38:27;5.60;;;1.42;;
52898;SDS011;38763;53.096;6.062;2023-08-08T10:41:11;8.55;;;1.33;;
52898;SDS011;38763;53.096;6.062;2023-08-08T10:43:38;4.07;;;1.08;;
52898;SDS011;38763;53.096;6.062;2023-08-08T10:46:12;4.80;;;1.00;;
52898;SDS011;38763;53.096;6.062;2023-08-08T10:48:48;3.65;;;1.08;;
52898;SDS011;38763;53.096;6.062;2023-08-08T10:51:15;7.47;;;1.20;;
52898;SDS011;38763;53.096;6.062;2023-08-08T10:53:42;11.68;;;2.72;;
52898;SDS011;38763;53.096;6.062;2023-08-08T10:56:11;7.32;;;1.48;;
52898;SDS011;38763;53.096;6.062;2023-08-08T10:58:39;6.57;;;1.10;;
52898;SDS011;38763;53.096;6.062;2023-08-08T11:01:06;11.73;;;2.78;;
52898;SDS011;38763;53.096;6.062;2023-08-08T11:03:35;10.40;;;1.40;;
52898;SDS011;38763;53.096;6.062;2023-08-08T11:06:02;4.47;;;1.05;;
52898;SDS011;38763;53.096;6.062;2023-08-08T11:08:29;3.95;;;1.08;;
52898;SDS011;38763;53.096;6.062;2023-08-08T11:10:57;4.30;;;1.33;;
52898;SDS011;38763;53.096;6.062;2023-08-08T11:13:22;5.75;;;1.08;;
52898;SDS011;38763;53.096;6.062;2023-08-08T11:15:48;5.25;;;1.10;;
52898;SDS011;38763;53.096;6.062;2023-08-08T11:18:14;8.32;;;1.40;;
52898;SDS011;38763;53.096;6.062;2023-08-08T11:20:39;5.35;;;1.10;;
52898;SDS011;38763;53.096;6.062;2023-08-08T11:23:05;5.03;;;1.10;;
52898;SDS011;38763;53.096;6.062;2023-08-08T11:25:35;5.18;;;1.02;;
52898;SDS011;38763;53.096;6.062;2023-08-08T11:28:01;6.93;;;1.23;;
52898;SDS011;38763;53.096;6.062;2023-08-08T11:30:28;3.72;;;1.00;;
52898;SDS011;38763;53.096;6.062;2023-08-08T11:32:55;4.75;;;1.20;;
52898;SDS011;38763;53.096;6.062;2023-08-08T11:35:22;5.07;;;1.10;;
52898;SDS011;38763;53.096;6.062;2023-08-08T11:37:49;5.07;;;1.20;;
52898;SDS011;38763;53.096;6.062;2023-08-08T11:40:17;5.25;;;1.20;;
52898;SDS011;38763;53.096;6.062;2023-08-08T11:42:44;4.38;;;1.05;;
52898;SDS011;38763;53.096;6.062;2023-08-08T11:45:10;7.45;;;1.30;;
52898;SDS011;38763;53.096;6.062;2023-08-08T11:47:38;6.63;;;1.20;;
52898;SDS011;38763;53.096;6.062;2023-08-08T11:50:05;6.97;;;1.13;;
52898;SDS011;38763;53.096;6.062;2023-08-08T11:52:32;7.30;;;1.05;;
52898;SDS011;38763;53.096;6.062;2023-08-08T11:55:00;6.38;;;1.20;;
52898;SDS011;38763;53.096;6.062;2023-08-08T11:57:26;7.25;;;1.45;;
52898;SDS011;38763;53.096;6.062;2023-08-08T11:59:52;6.32;;;1.20;;
52898;SDS011;38763;53.096;6.062;2023-08-08T12:02:19;3.95;;;1.08;;
52898;SDS011;38763;53.096;6.062;2023-08-08T12:04:47;6.55;;;1.20;;
52898;SDS011;38763;53.096;6.062;2023-08-08T12:07:13;5.43;;;1.10;;
52898;SDS011;38763;53.096;6.062;2023-08-08T12:09:39;6.70;;;1.38;;
52898;SDS011;38763;53.096;6.062;2023-08-08T12:12:05;5.25;;;1.20;;
52898;SDS011;38763;53.096;6.062;2023-08-08T12:14:37;5.35;;;1.40;;
52898;SDS011;38763;53.096;6.062;2023-08-08T12:17:04;6.30;;;1.27;;
52898;SDS011;38763;53.096;6.062;2023-08-08T12:19:30;5.32;;;1.38;;
52898;SDS011;38763;53.096;6.062;2023-08-08T12:21:55;4.40;;;1.00;;
52898;SDS011;38763;53.096;6.062;2023-08-08T12:24:21;7.18;;;1.42;;
52898;SDS011;38763;53.096;6.062;2023-08-08T12:26:47;5.40;;;1.05;;
52898;SDS011;38763;53.096;6.062;2023-08-08T12:29:13;9.40;;;1.20;;
52898;SDS011;38763;53.096;6.062;2023-08-08T12:31:39;6.00;;;1.10;;
52898;SDS011;38763;53.096;6.062;2023-08-08T12:34:05;4.90;;;1.10;;
52898;SDS011;38763;53.096;6.062;2023-08-08T12:36:30;5.95;;;1.23;;
52898;SDS011;38763;53.096;6.062;2023-08-08T12:38:56;2.00;;;0.80;;
52898;SDS011;38763;53.096;6.062;2023-08-08T12:41:23;6.53;;;1.30;;
52898;SDS011;38763;53.096;6.062;2023-08-08T12:43:50;5.07;;;1.10;;
52898;SDS011;38763;53.096;6.062;2023-08-08T12:46:16;8.40;;;1.60;;
52898;SDS011;38763;53.096;6.062;2023-08-08T12:48:42;3.58;;;1.10;;
52898;SDS011;38763;53.096;6.062;2023-08-08T12:51:09;8.13;;;1.60;;
52898;SDS011;38763;53.096;6.062;2023-08-08T12:53:35;3.90;;;0.88;;
52898;SDS011;38763;53.096;6.062;2023-08-08T12:56:00;7.22;;;1.52;;
52898;SDS011;38763;53.096;6.062;2023-08-08T12:58:26;6.28;;;1.35;;
52898;SDS011;38763;53.096;6.062;2023-08-08T13:00:52;6.85;;;1.30;;
52898;SDS011;38763;53.096;6.062;2023-08-08T13:03:17;6.57;;;1.20;;
52898;SDS011;38763;53.096;6.062;2023-08-08T13:05:43;7.63;;;1.55;;
52898;SDS011;38763;53.096;6.062;2023-08-08T13:08:09;7.50;;;1.30;;
52898;SDS011;38763;53.096;6.062;2023-08-08T13:10:35;7.15;;;1.10;;
52898;SDS011;38763;53.096;6.062;2023-08-08T13:13:01;5.03;;;1.10;;
52898;SDS011;38763;53.096;6.062;2023-08-08T13:15:27;8.70;;;1.60;;
52898;SDS011;38763;53.096;6.062;2023-08-08T13:17:53;5.65;;;1.40;;
52898;SDS011;38763;53.096;6.062;2023-08-08T13:20:18;4.97;;;1.15;;
52898;SDS011;38763;53.096;6.062;2023-08-08T13:22:44;5.85;;;1.17;;
52898;SDS011;38763;53.096;6.062;2023-08-08T13:25:10;8.93;;;1.98;;
52898;SDS011;38763;53.096;6.062;2023-08-08T13:27:36;8.40;;;1.90;;
52898;SDS011;38763;53.096;6.062;2023-08-08T13:30:02;5.70;;;1.50;;
52898;SDS011;38763;53.096;6.062;2023-08-08T13:32:28;11.48;;;1.88;;
52898;SDS011;38763;53.096;6.062;2023-08-08T13:34:54;5.63;;;1.20;;
52898;SDS011;38763;53.096;6.062;2023-08-08T13:37:19;7.63;;;1.20;;
52898;SDS011;38763;53.096;6.062;2023-08-08T13:39:45;7.65;;;1.30;;
52898;SDS011;38763;53.096;6.062;2023-08-08T13:42:11;7.53;;;1.48;;
52898;SDS011;38763;53.096;6.062;2023-08-08T13:44:36;6.32;;;1.50;;
52898;SDS011;38763;53.096;6.062;2023-08-08T13:47:02;4.32;;;1.17;;
52898;SDS011;38763;53.096;6.062;2023-08-08T13:49:28;8.10;;;1.35;;
52898;SDS011;38763;53.096;6.062;2023-08-08T13:51:53;6.90;;;1.88;;
52898;SDS011;38763;53.096;6.062;2023-08-08T13:54:19;5.43;;;1.15;;
52898;SDS011;38763;53.096;6.062;2023-08-08T13:56:45;10.90;;;1.20;;
52898;SDS011;38763;53.096;6.062;2023-08-08T13:59:11;9.40;;;1.23;;
52898;SDS011;38763;53.096;6.062;2023-08-08T14:01:36;6.35;;;1.65;;
52898;SDS011;38763;53.096;6.062;2023-08-08T14:04:02;7.80;;;1.60;;
52898;SDS011;38763;53.096;6.062;2023-08-08T14:06:28;8.98;;;1.63;;
52898;SDS011;38763;53.096;6.062;2023-08-08T14:08:55;6.38;;;1.30;;
52898;SDS011;38763;53.096;6.062;2023-08-08T14:11:20;6.30;;;1.30;;
52898;SDS011;38763;53.096;6.062;2023-08-08T14:13:46;7.25;;;1.30;;
52898;SDS011;38763;53.096;6.062;2023-08-08T14:16:12;6.78;;;1.30;;
52898;SDS011;38763;53.096;6.062;2023-08-08T14:18:37;6.68;;;1.08;;
52898;SDS011;38763;53.096;6.062;2023-08-08T14:21:03;6.13;;;1.10;;
52898;SDS011;38763;53.096;6.062;2023-08-08T14:23:30;6.25;;;1.23;;
52898;SDS011;38763;53.096;6.062;2023-08-08T14:25:56;4.97;;;0.98;;
52898;SDS011;38763;53.096;6.062;2023-08-08T14:28:21;6.95;;;1.20;;
52898;SDS011;38763;53.096;6.062;2023-08-08T14:30:47;3.10;;;0.85;;
52898;SDS011;38763;53.096;6.062;2023-08-08T14:33:14;6.72;;;1.00;;
52898;SDS011;38763;53.096;6.062;2023-08-08T14:35:41;6.35;;;1.27;;
52898;SDS011;38763;53.096;6.062;2023-08-08T14:38:07;5.82;;;1.33;;
52898;SDS011;38763;53.096;6.062;2023-08-08T14:40:32;5.60;;;1.10;;
52898;SDS011;38763;53.096;6.062;2023-08-08T14:42:59;6.03;;;1.35;;